Forside
METAR-TAF:

METAR-TAF

Lufthavne :

New Orleans, Louisiana, USA

Breddekreds: 29-59-34N, længdekreds: 090-15-03W, højde: 1 m

Aktuelle vejr

Denne rapport blev lavet for 14 minutter siden, kl. 02:53 UTC
Vind 3 kt fra nordvest
Temperatur 7°C
Fugtighed 76%
Tryk 1025 hPa
Sigt: 16.1 km
Nogle få skyer i en højde af 25000 ft

METAR: KMSY 160253Z 31003KT 10SM FEW250 07/03 A3026 RMK AO2 SLP248 T00670033 51012

Tid: 21:07 (03:07 UTC)

Vejrudsigter

Denne rapport blev lavet for 3 timer og 41 minutter siden, kl. 23:26 UTC
Foreløbig gælder fra 16 på 00 UTC til 17 på 06 UTC
Vind 4 kt fra varierende retninger
Sigt: 10 km
skyfri

TAF: KMSY 152326Z 1600/1706 VRB04KT P6SM SKC

Vejrobservationer og prognoser fra mere end 4000 lufthavne (METAR og TAF).

De gule og røde prikker repræsenterer de meteorologiske stationer.

Flyt musen over at se navnet på stationen.

Så klik over at se vejr observationer og prognoser.

At skifte det kort: Klik på de grønne knapper med et sort kors for at zoome ind; på den grønne knap med en bindestreg for at zoome ud; eller på de grønne pile for tilstødende kort.


METAR-TAF: